Time;durP1;ratioP1;P1;durP2;ratioP2;P2;SDS_P1;SDS_P2;PMS_P1;PMS_P2;Temp;Humidity;BMP_temperature;BMP_pressure;BME280_temperature;BME280_humidity;BME280_pressure;Samples;Min_cycle;Max_cycle;Signal;HPM_P1;HPM_P2
2023/02/12 00:02:14;;;;;;;28.70;16.00;;;6.80;99.90;;;;;;5085951;28;20089;-78
2023/02/12 00:04:40;;;;;;;28.23;15.33;;;6.80;99.90;;;;;;5103704;28;20115;-76
2023/02/12 00:07:05;;;;;;;29.60;14.80;;;6.80;99.90;;;;;;5093375;28;20460;-76
2023/02/12 00:09:31;;;;;;;28.03;14.73;;;6.80;99.90;;;;;;5096746;28;20024;-78
2023/02/12 00:11:57;;;;;;;30.40;16.37;;;6.80;99.90;;;;;;5077711;28;20396;-76
2023/02/12 00:14:22;;;;;;;31.30;15.77;;;6.90;99.90;;;;;;5077957;28;20028;-76
2023/02/12 00:16:48;;;;;;;30.60;15.60;;;6.90;99.90;;;;;;5077291;28;20503;-76
2023/02/12 00:19:13;;;;;;;30.13;15.83;;;6.80;99.90;;;;;;5078002;28;20483;-76
2023/02/12 00:21:39;;;;;;;29.33;15.27;;;6.80;99.90;;;;;;5077298;28;20544;-76
2023/02/12 00:24:05;;;;;;;31.77;15.90;;;6.80;99.90;;;;;;5077996;28;20028;-76
2023/02/12 00:26:30;;;;;;;27.57;15.13;;;6.80;99.90;;;;;;5077298;28;20028;-79
2023/02/12 00:28:56;;;;;;;27.27;14.80;;;6.80;99.90;;;;;;5095958;28;20024;-76
2023/02/12 00:31:28;;;;;;;29.30;15.23;;;6.80;99.90;;;;;;5077770;28;20048;-76
2023/02/12 00:33:54;;;;;;;27.20;14.40;;;6.80;99.90;;;;;;5077340;28;20024;-76
2023/02/12 00:36:22;;;;;;;31.93;15.70;;;6.80;99.90;;;;;;5077554;28;20039;-76
2023/02/12 00:38:51;;;;;;;29.53;14.67;;;6.80;99.90;;;;;;5095532;28;20225;-75
2023/02/12 00:41:16;;;;;;;27.57;14.90;;;6.80;99.90;;;;;;5095859;28;20020;-76
2023/02/12 00:43:42;;;;;;;26.23;14.80;;;6.80;99.90;;;;;;5076936;28;20518;-76
2023/02/12 00:46:08;;;;;;;26.57;14.30;;;6.80;99.90;;;;;;5095393;28;20103;-76
2023/02/12 00:48:34;;;;;;;25.13;14.10;;;6.80;99.90;;;;;;5076854;28;20067;-76
2023/02/12 00:51:00;;;;;;;27.97;14.83;;;6.80;99.90;;;;;;5077637;28;20469;-76
2023/02/12 00:53:26;;;;;;;27.03;14.17;;;6.80;99.90;;;;;;5077442;28;20031;-76
2023/02/12 00:55:52;;;;;;;29.47;15.37;;;6.80;99.90;;;;;;5076789;28;20024;-76
2023/02/12 00:58:18;;;;;;;33.80;16.10;;;6.80;99.90;;;;;;5077172;28;20035;-76
2023/02/12 01:00:43;;;;;;;33.67;16.73;;;6.80;99.90;;;;;;5094790;28;20024;-76
2023/02/12 01:03:09;;;;;;;27.53;15.23;;;6.80;99.90;;;;;;5077356;28;20032;-76
2023/02/12 01:05:35;;;;;;;27.47;15.30;;;6.80;99.90;;;;;;5094841;28;20394;-76
2023/02/12 01:08:01;;;;;;;27.63;14.47;;;6.80;99.90;;;;;;5076738;28;20021;-75
2023/02/12 01:10:27;;;;;;;26.33;13.90;;;6.80;99.90;;;;;;5095342;28;20035;-76
2023/02/12 01:12:54;;;;;;;30.00;15.23;;;6.80;99.90;;;;;;5076238;28;20022;-76
2023/02/12 01:15:19;;;;;;;26.77;15.13;;;6.80;99.90;;;;;;5076648;28;20032;-76
2023/02/12 01:17:45;;;;;;;26.03;14.67;;;6.80;99.90;;;;;;5076079;28;20032;-76
2023/02/12 01:20:16;;;;;;;28.60;14.47;;;6.80;99.90;;;;;;5076664;28;20028;-76
2023/02/12 01:22:42;;;;;;;26.57;14.73;;;6.80;99.90;;;;;;5076234;28;20059;-76
2023/02/12 01:25:08;;;;;;;28.53;15.80;;;6.80;99.90;;;;;;5094895;28;20036;-76
2023/02/12 01:27:33;;;;;;;26.53;14.93;;;6.70;99.90;;;;;;5076550;28;20024;-79
2023/02/12 01:29:59;;;;;;;26.03;14.73;;;6.70;99.90;;;;;;5094499;28;20454;-76
2023/02/12 01:32:25;;;;;;;31.93;15.90;;;6.70;99.90;;;;;;5076687;28;20024;-76
2023/02/12 01:34:50;;;;;;;25.57;15.20;;;6.70;99.90;;;;;;5076168;28;20060;-75
2023/02/12 01:37:16;;;;;;;27.67;14.53;;;6.80;99.90;;;;;;5094561;28;20101;-75
2023/02/12 01:39:41;;;;;;;28.20;15.57;;;6.70;99.90;;;;;;5075549;28;20035;-76
2023/02/12 01:42:12;;;;;;;31.60;15.43;;;6.80;99.90;;;;;;5094284;28;20051;-75
2023/02/12 01:45:02;;;;;;;28.43;14.83;;;6.80;99.90;;;;;;5075811;28;20024;-76
2023/02/12 01:47:27;;;;;;;28.27;15.73;;;6.70;99.90;;;;;;5076334;28;20063;-75
2023/02/12 01:49:53;;;;;;;28.20;15.80;;;6.70;99.90;;;;;;5075850;28;20063;-76
2023/02/12 01:52:30;;;;;;;27.93;15.30;;;6.70;99.90;;;;;;5076108;28;20469;-76
2023/02/12 01:55:00;;;;;;;25.63;14.37;;;6.60;99.90;;;;;;5075872;28;20119;-76
2023/02/12 01:57:28;;;;;;;26.80;14.30;;;6.60;99.90;;;;;;5076176;28;20028;-76
2023/02/12 01:59:58;;;;;;;29.10;15.93;;;6.60;99.90;;;;;;5075788;28;20027;-76
2023/02/12 02:02:24;;;;;;;29.67;15.97;;;6.60;99.90;;;;;;5076115;28;20031;-76
2023/02/12 02:04:54;;;;;;;24.80;14.43;;;6.60;99.90;;;;;;5093844;28;20484;-77
2023/02/12 02:07:20;;;;;;;25.93;14.20;;;6.60;99.90;;;;;;5076322;28;20462;-77
2023/02/12 02:09:46;;;;;;;29.27;15.43;;;6.70;99.90;;;;;;5075531;28;20031;-77
2023/02/12 02:14:58;;;;;;;33.73;15.20;;;6.60;99.90;;;;;;5093475;28;20579;-77
2023/02/12 02:17:44;;;;;;;26.70;15.17;;;6.60;99.90;;;;;;5075910;28;20123;-77
2023/02/12 02:20:18;;;;;;;29.07;14.47;;;6.60;99.90;;;;;;5075692;28;20036;-77
2023/02/12 02:23:09;;;;;;;30.30;15.13;;;6.60;99.90;;;;;;5074751;28;20542;-76
2023/02/12 02:26:08;;;;;;;29.27;15.47;;;6.60;99.90;;;;;;5093659;28;20028;-81
2023/02/12 02:29:11;;;;;;;33.27;16.30;;;6.70;99.90;;;;;;5075337;28;20024;-78
2023/02/12 02:32:04;;;;;;;29.33;14.63;;;6.70;99.90;;;;;;5093664;28;20035;-83
2023/02/12 02:34:53;;;;;;;29.17;15.03;;;6.70;99.90;;;;;;5075336;28;20039;-75
2023/02/12 02:37:37;;;;;;;29.53;15.27;;;6.70;99.90;;;;;;5075437;28;20600;-75
2023/02/12 02:40:24;;;;;;;28.47;14.07;;;6.70;99.90;;;;;;5075067;28;20066;-75
2023/02/12 02:43:15;;;;;;;26.87;14.70;;;6.70;99.90;;;;;;5074840;28;20110;-75
2023/02/12 02:45:51;;;;;;;26.63;14.93;;;6.70;99.90;;;;;;5093056;28;20020;-76
2023/02/12 02:48:26;;;;;;;24.83;13.90;;;6.70;99.90;;;;;;5075443;28;20031;-76
2023/02/12 02:50:57;;;;;;;27.07;14.57;;;6.70;99.90;;;;;;5074881;28;20028;-76
2023/02/12 02:53:30;;;;;;;27.97;15.00;;;6.70;99.90;;;;;;5075241;28;20065;-75
2023/02/12 02:55:58;;;;;;;28.03;13.73;;;6.70;99.90;;;;;;5074696;28;20068;-76
2023/02/12 02:59:00;;;;;;;26.90;14.60;;;6.70;99.90;;;;;;5075166;28;20488;-76
2023/02/12 03:01:36;;;;;;;26.57;14.57;;;6.60;99.90;;;;;;5071137;28;20109;-76
2023/02/12 03:04:08;;;;;;;27.43;14.57;;;6.70;99.90;;;;;;5074454;28;20469;-76
2023/02/12 03:06:46;;;;;;;25.23;13.83;;;6.70;99.90;;;;;;5074884;28;20062;-76
2023/02/12 03:09:40;;;;;;;21.87;12.73;;;6.70;99.90;;;;;;5093190;28;20051;-75
2023/02/12 03:12:15;;;;;;;26.60;14.50;;;6.60;99.90;;;;;;5083844;28;20078;-76
2023/02/12 03:14:49;;;;;;;23.73;13.40;;;6.60;99.90;;;;;;5074272;28;20469;-80
2023/02/12 03:17:24;;;;;;;26.10;13.60;;;6.60;99.90;;;;;;5074690;28;20024;-75
2023/02/12 03:19:54;;;;;;;27.07;13.83;;;6.70;99.90;;;;;;5074171;28;20366;-76
2023/02/12 03:22:33;;;;;;;25.87;14.67;;;6.70;99.90;;;;;;5074376;28;20481;-75
2023/02/12 03:25:20;;;;;;;27.30;14.00;;;6.70;99.90;;;;;;5092295;28;20024;-76
2023/02/12 03:28:00;;;;;;;24.83;13.50;;;6.70;99.90;;;;;;5074036;28;20052;-76
2023/02/12 03:30:41;;;;;;;30.67;14.67;;;6.60;99.90;;;;;;5077409;28;20024;-76
2023/02/12 03:33:20;;;;;;;30.25;15.90;;;6.60;99.90;;;;;;5097236;28;20028;-76
2023/02/12 03:36:06;;;;;;;27.40;14.90;;;6.60;99.90;;;;;;5078430;28;20036;-76
2023/02/12 03:38:41;;;;;;;28.20;14.67;;;6.60;99.90;;;;;;5079011;28;20442;-75
2023/02/12 03:41:43;;;;;;;26.23;14.57;;;6.60;99.90;;;;;;5096812;28;20024;-76
2023/02/12 03:44:32;;;;;;;28.05;13.90;;;6.60;99.90;;;;;;5083282;28;20048;-76
2023/02/12 03:47:15;;;;;;;25.77;13.77;;;6.60;99.90;;;;;;5077789;28;20485;-76
2023/02/12 03:49:54;;;;;;;29.20;15.03;;;6.60;99.90;;;;;;5078341;28;20354;-82
2023/02/12 03:52:20;;;;;;;30.13;15.47;;;6.60;99.90;;;;;;5078886;28;20384;-77
2023/02/12 03:54:46;;;;;;;28.87;15.20;;;6.60;99.90;;;;;;5077934;28;20377;-77
2023/02/12 03:57:18;;;;;;;33.30;16.57;;;6.60;99.90;;;;;;5096741;28;20070;-77
2023/02/12 03:59:45;;;;;;;31.60;15.47;;;6.60;99.90;;;;;;5078295;28;20448;-82
2023/02/12 04:02:12;;;;;;;32.50;17.07;;;6.60;99.90;;;;;;5078773;28;20118;-76
2023/02/12 04:04:38;;;;;;;29.53;16.57;;;6.60;99.90;;;;;;5078439;28;20458;-75
2023/02/12 04:07:04;;;;;;;33.63;16.37;;;6.60;99.90;;;;;;5095635;28;20047;-75
2023/02/12 04:09:30;;;;;;;29.27;15.93;;;6.60;99.90;;;;;;5077968;28;20034;-76
2023/02/12 04:12:22;;;;;;;29.13;15.40;;;6.60;99.90;;;;;;5077215;28;20123;-76
2023/02/12 04:15:09;;;;;;;31.25;16.17;;;6.60;99.90;;;;;;5076436;28;20067;-76
2023/02/12 04:18:09;;;;;;;29.03;15.70;;;6.60;99.90;;;;;;5096161;28;20536;-76
2023/02/12 04:21:06;;;;;;;29.10;16.67;;;6.60;99.90;;;;;;5077824;28;20473;-76
2023/02/12 04:23:41;;;;;;;30.10;16.63;;;6.50;99.90;;;;;;5095999;28;20067;-75
2023/02/12 04:26:27;;;;;;;30.67;16.50;;;6.50;99.90;;;;;;5077156;28;20028;-76
2023/02/12 04:28:59;;;;;;;33.17;16.80;;;6.50;99.90;;;;;;5095523;28;20047;-76
2023/02/12 04:31:47;;;;;;;27.75;16.60;;;6.50;99.90;;;;;;5077963;28;20111;-76
2023/02/12 04:34:52;;;;;;;32.77;16.50;;;6.50;99.90;;;;;;5077636;28;20465;-76
2023/02/12 04:37:23;;;;;;;29.27;14.93;;;6.50;99.90;;;;;;5095989;28;20036;-76
2023/02/12 04:39:50;;;;;;;30.87;15.77;;;6.50;99.90;;;;;;5076961;28;20034;-77
2023/02/12 04:42:16;;;;;;;30.20;15.33;;;6.60;99.90;;;;;;5076648;28;20457;-75
2023/02/12 04:44:43;;;;;;;30.47;16.00;;;6.60;99.90;;;;;;5077505;28;20115;-75
2023/02/12 04:47:13;;;;;;;30.40;16.23;;;6.60;99.90;;;;;;5095073;28;20028;-76
2023/02/12 04:49:39;;;;;;;27.60;15.23;;;6.60;99.90;;;;;;5095310;28;20028;-76
2023/02/12 04:52:05;;;;;;;32.83;16.80;;;6.60;99.90;;;;;;5094705;28;20024;-76
2023/02/12 04:54:31;;;;;;;28.97;15.43;;;6.60;99.90;;;;;;5077032;28;20024;-76
2023/02/12 04:56:56;;;;;;;31.13;15.83;;;6.60;99.90;;;;;;5094339;28;20119;-76
2023/02/12 04:59:22;;;;;;;32.37;15.57;;;6.60;99.90;;;;;;5095210;28;20376;-76
2023/02/12 05:01:47;;;;;;;28.87;15.77;;;6.60;99.90;;;;;;5076480;28;20073;-83
2023/02/12 05:04:15;;;;;;;31.80;15.70;;;6.60;99.90;;;;;;5094997;28;20051;-76
2023/02/12 05:06:41;;;;;;;29.37;15.43;;;6.60;99.90;;;;;;5077174;28;20066;-76
2023/02/12 05:09:08;;;;;;;32.97;15.53;;;6.60;99.90;;;;;;5076293;28;20020;-76
2023/02/12 05:11:34;;;;;;;31.97;15.80;;;6.60;99.90;;;;;;5076806;28;20024;-77
2023/02/12 05:14:00;;;;;;;29.33;15.87;;;6.60;99.90;;;;;;5094660;28;20173;-76
2023/02/12 05:16:25;;;;;;;29.30;15.30;;;6.60;99.90;;;;;;5095175;28;20055;-76
2023/02/12 05:18:51;;;;;;;27.57;15.33;;;6.60;99.90;;;;;;5076400;28;20028;-76
2023/02/12 05:21:17;;;;;;;29.57;15.70;;;6.60;99.90;;;;;;5076658;28;20028;-76
2023/02/12 05:23:42;;;;;;;31.43;15.77;;;6.60;99.90;;;;;;5077204;28;20371;-76
2023/02/12 05:26:15;;;;;;;28.50;15.17;;;6.60;99.90;;;;;;5076524;28;20085;-76
2023/02/12 05:28:41;;;;;;;31.77;15.67;;;6.60;99.90;;;;;;5076900;28;20499;-76
2023/02/12 05:31:09;;;;;;;28.37;15.17;;;6.60;99.90;;;;;;5076299;28;20028;-76
2023/02/12 05:33:35;;;;;;;32.07;16.33;;;6.60;99.90;;;;;;5076679;28;20028;-76
2023/02/12 05:36:04;;;;;;;29.97;15.10;;;6.60;99.90;;;;;;5076261;28;20126;-76
2023/02/12 05:38:30;;;;;;;31.77;15.63;;;6.60;99.90;;;;;;5076644;28;20020;-76
2023/02/12 05:41:04;;;;;;;32.03;16.10;;;6.60;99.90;;;;;;5076147;28;20031;-77
2023/02/12 05:43:30;;;;;;;30.17;14.63;;;6.60;99.90;;;;;;5094653;28;20040;-76
2023/02/12 05:45:59;;;;;;;35.50;16.33;;;6.60;99.90;;;;;;5094421;28;20028;-77
2023/02/12 05:48:25;;;;;;;32.40;16.77;;;6.60;99.90;;;;;;5076016;28;20131;-76
2023/02/12 05:50:51;;;;;;;31.67;16.03;;;6.60;99.90;;;;;;5075725;28;20063;-77
2023/02/12 05:53:17;;;;;;;34.43;15.97;;;6.60;99.90;;;;;;5076349;28;20126;-76
2023/02/12 05:55:42;;;;;;;28.33;15.53;;;6.60;99.90;;;;;;5076367;28;20032;-76
2023/02/12 05:58:08;;;;;;;32.23;15.93;;;6.50;99.90;;;;;;5075995;28;20654;-76
2023/02/12 06:00:33;;;;;;;27.80;14.57;;;6.50;99.90;;;;;;5076295;28;20027;-76
2023/02/12 06:02:59;;;;;;;30.33;16.23;;;6.50;99.90;;;;;;5075692;28;20465;-76
2023/02/12 06:05:25;;;;;;;29.73;15.83;;;6.40;99.90;;;;;;5094206;28;20032;-76
2023/02/12 06:07:50;;;;;;;31.17;15.53;;;6.40;99.90;;;;;;5093847;28;20039;-77
2023/02/12 06:10:16;;;;;;;27.70;15.23;;;6.50;99.90;;;;;;5094368;28;20132;-76
2023/02/12 06:12:42;;;;;;;32.30;16.23;;;6.50;99.90;;;;;;5075824;28;20020;-76
2023/02/12 06:15:07;;;;;;;31.13;15.90;;;6.50;99.90;;;;;;5093518;28;20035;-76
2023/02/12 06:17:34;;;;;;;31.30;15.57;;;6.50;99.90;;;;;;5075732;28;20114;-76
2023/02/12 06:19:59;;;;;;;35.30;16.73;;;6.50;99.90;;;;;;5075345;28;20470;-77
2023/02/12 06:22:27;;;;;;;29.83;16.17;;;6.50;99.90;;;;;;5075427;28;20048;-76
2023/02/12 06:24:52;;;;;;;34.20;15.70;;;6.50;99.90;;;;;;5075290;28;20062;-80
2023/02/12 06:27:18;;;;;;;30.80;15.30;;;6.50;99.90;;;;;;5075320;28;20059;-76
2023/02/12 06:29:44;;;;;;;33.00;16.63;;;6.50;99.90;;;;;;5075223;28;20028;-76
2023/02/12 06:32:12;;;;;;;28.57;16.00;;;6.50;99.90;;;;;;5074589;28;20028;-76
2023/02/12 06:34:38;;;;;;;30.80;16.27;;;6.50;99.90;;;;;;5075410;28;20059;-76
2023/02/12 06:37:04;;;;;;;30.63;16.40;;;6.50;99.90;;;;;;5074954;28;20028;-76
2023/02/12 06:39:29;;;;;;;32.43;17.07;;;6.40;99.90;;;;;;5093890;28;20093;-75
2023/02/12 06:41:55;;;;;;;28.70;15.53;;;6.40;99.90;;;;;;5092508;28;20420;-76
2023/02/12 06:44:21;;;;;;;30.63;15.63;;;6.50;99.90;;;;;;5074863;28;20102;-76
2023/02/12 06:46:46;;;;;;;30.00;17.20;;;6.50;99.90;;;;;;5075345;28;20028;-76
2023/02/12 06:49:13;;;;;;;30.17;15.97;;;6.50;99.90;;;;;;5074502;28;20023;-76
2023/02/12 06:51:40;;;;;;;32.27;16.87;;;6.50;99.90;;;;;;5075440;28;20059;-76
2023/02/12 06:54:12;;;;;;;33.77;15.90;;;6.50;99.90;;;;;;5074829;28;20416;-75
2023/02/12 06:56:37;;;;;;;33.95;16.38;;;6.50;99.90;;;;;;5093228;28;20032;-76
2023/02/12 06:59:03;;;;;;;32.57;17.23;;;6.50;99.90;;;;;;5092674;28;20092;-76
2023/02/12 07:01:29;;;;;;;32.23;15.83;;;6.50;99.90;;;;;;5093431;28;20036;-76
2023/02/12 07:03:57;;;;;;;30.07;15.77;;;6.50;99.90;;;;;;5092500;28;20027;-80
2023/02/12 07:06:24;;;;;;;31.60;15.53;;;6.50;99.90;;;;;;5075168;28;20028;-77
2023/02/12 07:08:50;;;;;;;29.87;15.47;;;6.50;99.90;;;;;;5075296;28;20027;-76
2023/02/12 07:11:16;;;;;;;28.70;15.17;;;6.50;99.90;;;;;;5074481;28;20039;-76
2023/02/12 07:13:43;;;;;;;31.53;15.67;;;6.40;99.90;;;;;;5092967;28;20039;-76
2023/02/12 07:16:14;;;;;;;30.40;16.03;;;6.40;99.90;;;;;;5073743;28;20071;-76
2023/02/12 07:18:40;;;;;;;35.07;16.47;;;6.40;99.90;;;;;;5074571;28;20040;-76
2023/02/12 07:21:07;;;;;;;28.80;15.20;;;6.40;99.90;;;;;;5074134;28;20032;-76
2023/02/12 07:23:33;;;;;;;32.43;15.33;;;6.30;99.90;;;;;;5092591;28;20123;-76
2023/02/12 07:26:05;;;;;;;27.83;15.53;;;6.40;99.90;;;;;;5074373;28;20032;-76
2023/02/12 07:28:34;;;;;;;32.30;15.75;;;6.40;99.90;;;;;;5074674;28;20021;-75
2023/02/12 07:31:07;;;;;;;27.20;14.90;;;6.40;99.90;;;;;;5091861;28;20040;-76
2023/02/12 07:33:33;;;;;;;29.17;15.73;;;6.50;99.90;;;;;;5074651;28;20112;-76
2023/02/12 07:36:03;;;;;;;33.10;15.87;;;6.50;99.90;;;;;;5091682;28;20119;-76
2023/02/12 07:38:29;;;;;;;34.87;16.30;;;6.50;99.90;;;;;;5092591;28;20024;-75
2023/02/12 07:40:58;;;;;;;29.13;15.23;;;6.50;99.90;;;;;;5074402;28;20025;-80
2023/02/12 07:43:24;;;;;;;31.07;16.80;;;6.60;99.90;;;;;;5074883;28;20131;-75
2023/02/12 07:45:49;;;;;;;29.73;15.83;;;6.60;99.90;;;;;;5074186;28;20489;-75
2023/02/12 07:48:15;;;;;;;37.23;16.47;;;6.60;99.90;;;;;;5073743;28;20032;-76
2023/02/12 07:50:40;;;;;;;30.33;15.03;;;6.60;99.90;;;;;;5092379;28;20077;-76
2023/02/12 07:53:06;;;;;;;32.80;15.73;;;6.60;99.90;;;;;;5073591;28;20499;-75
2023/02/12 07:55:32;;;;;;;30.83;16.27;;;6.70;99.90;;;;;;5074080;28;20032;-76
2023/02/12 07:57:57;;;;;;;29.93;15.57;;;6.70;99.90;;;;;;5073852;28;20024;-82
2023/02/12 08:00:23;;;;;;;32.83;16.67;;;6.70;99.90;;;;;;5074264;28;20024;-75
2023/02/12 08:02:53;;;;;;;32.47;17.00;;;6.80;99.90;;;;;;5074271;28;20032;-75
2023/02/12 08:05:19;;;;;;;33.00;16.93;;;6.80;99.90;;;;;;5073547;28;20059;-75
2023/02/12 08:07:44;;;;;;;32.13;15.97;;;6.80;99.90;;;;;;5092326;28;20107;-75
2023/02/12 08:10:10;;;;;;;33.57;17.03;;;6.80;99.90;;;;;;5073910;28;20078;-75
2023/02/12 08:12:36;;;;;;;33.47;17.57;;;6.90;99.90;;;;;;5092398;28;20032;-75
2023/02/12 08:15:01;;;;;;;32.23;17.00;;;7.00;99.90;;;;;;5073540;28;20066;-75
2023/02/12 08:17:27;;;;;;;35.70;17.10;;;7.00;99.90;;;;;;5076367;28;20078;-75
2023/02/12 08:19:53;;;;;;;35.93;16.83;;;7.10;99.90;;;;;;5078081;28;20189;-76
2023/02/12 08:22:18;;;;;;;31.40;16.63;;;7.20;99.90;;;;;;5095330;28;20048;-75
2023/02/12 08:24:44;;;;;;;35.97;17.53;;;7.20;99.90;;;;;;5077962;28;20024;-76
2023/02/12 08:27:09;;;;;;;32.63;17.27;;;7.30;99.90;;;;;;5077142;28;20380;-76
2023/02/12 08:29:35;;;;;;;36.83;17.13;;;7.30;99.90;;;;;;5078049;28;20032;-76
2023/02/12 08:32:02;;;;;;;36.50;17.00;;;7.30;99.90;;;;;;5077338;28;20116;-76
2023/02/12 08:34:33;;;;;;;35.77;17.67;;;7.40;99.90;;;;;;5095787;28;20020;-77
2023/02/12 08:36:59;;;;;;;36.33;17.43;;;7.40;99.90;;;;;;5077225;28;20458;-77
2023/02/12 08:39:28;;;;;;;35.90;16.40;;;7.50;99.90;;;;;;5095822;28;20023;-77
2023/02/12 08:41:55;;;;;;;36.53;17.97;;;7.50;99.90;;;;;;5077852;28;20377;-77
2023/02/12 08:44:21;;;;;;;42.13;18.10;;;7.60;99.90;;;;;;5077235;28;20020;-76
2023/02/12 08:46:51;;;;;;;37.33;17.73;;;7.60;99.90;;;;;;5077830;28;20122;-81
2023/02/12 08:49:21;;;;;;;34.37;18.37;;;7.70;99.90;;;;;;5077912;28;20046;-76
2023/02/12 08:51:50;;;;;;;33.47;17.02;;;7.80;99.90;;;;;;5077459;28;20028;-77
2023/02/12 08:54:22;;;;;;;33.58;16.58;;;7.80;99.90;;;;;;5077253;28;20034;-77
2023/02/12 08:56:48;;;;;;;35.53;17.58;;;7.90;99.90;;;;;;5077407;28;20518;-78
2023/02/12 08:59:15;;;;;;;37.88;17.83;;;8.00;99.90;;;;;;5089122;28;20070;-74
2023/02/12 09:01:42;;;;;;;35.25;17.90;;;8.10;99.90;;;;;;5077016;28;20030;-73
2023/02/12 09:04:17;;;;;;;35.78;17.10;;;8.10;99.90;;;;;;5094095;28;20030;-74
2023/02/12 09:06:43;;;;;;;34.38;17.55;;;8.20;99.90;;;;;;5076363;28;20028;-74
2023/02/12 09:09:08;;;;;;;33.47;16.88;;;8.20;99.90;;;;;;5075854;28;20073;-74
2023/02/12 09:11:35;;;;;;;30.73;17.50;;;8.30;99.90;;;;;;5075882;28;20032;-75
2023/02/12 09:14:06;;;;;;;35.42;17.50;;;8.40;99.90;;;;;;5075594;28;20469;-76
2023/02/12 09:16:39;;;;;;;31.98;16.83;;;8.40;99.90;;;;;;5075871;28;20043;-75
2023/02/12 09:19:05;;;;;;;36.22;17.77;;;8.50;99.90;;;;;;5075822;28;20066;-75
2023/02/12 09:21:31;;;;;;;31.73;16.50;;;8.50;99.90;;;;;;5078600;28;20048;-74
2023/02/12 09:23:57;;;;;;;32.05;16.92;;;8.60;99.90;;;;;;5096012;28;20027;-74
2023/02/12 09:26:26;;;;;;;34.63;16.50;;;8.60;99.90;;;;;;5079310;28;20131;-74
2023/02/12 09:28:53;;;;;;;28.88;15.18;;;8.60;99.90;;;;;;5095529;28;20020;-75
2023/02/12 09:31:25;;;;;;;30.02;14.93;;;8.60;99.90;;;;;;5087445;28;20021;-73
2023/02/12 09:33:53;;;;;;;29.35;15.20;;;8.60;99.90;;;;;;5088379;28;20031;-74
2023/02/12 09:36:19;;;;;;;36.13;16.67;;;8.70;99.90;;;;;;5095285;28;20054;-75
2023/02/12 09:38:45;;;;;;;27.77;16.15;;;8.70;99.90;;;;;;5077098;28;20020;-79
2023/02/12 09:41:41;;;;;;;30.90;15.32;;;8.70;99.90;;;;;;5100812;28;20023;-78
2023/02/12 09:44:31;;;;;;;28.98;15.50;;;8.80;99.90;;;;;;5113809;28;20027;-76
2023/02/12 09:47:14;;;;;;;30.13;14.55;;;8.80;99.90;;;;;;5081022;28;20130;-78
2023/02/12 09:50:09;;;;;;;29.50;15.40;;;8.80;99.90;;;;;;5084985;28;20066;-78
2023/02/12 09:52:36;;;;;;;28.30;15.38;;;8.90;99.90;;;;;;5092681;28;20077;-80
2023/02/12 09:55:01;;;;;;;26.88;14.93;;;8.90;99.90;;;;;;5081323;28;20061;-79
2023/02/12 09:57:32;;;;;;;33.30;15.95;;;8.90;99.90;;;;;;5092691;28;20028;-81
2023/02/12 10:00:04;;;;;;;31.13;16.13;;;9.00;99.90;;;;;;5089462;28;20027;-77
2023/02/12 10:02:29;;;;;;;32.60;16.30;;;9.10;99.90;;;;;;5097402;28;20055;-78
2023/02/12 10:04:55;;;;;;;30.40;16.27;;;9.10;99.90;;;;;;5091335;28;20122;-78
2023/02/12 10:07:26;;;;;;;31.08;15.85;;;9.10;99.90;;;;;;5083821;28;20051;-79
2023/02/12 10:10:15;;;;;;;28.75;15.45;;;9.10;99.90;;;;;;5082664;28;20031;-78
2023/02/12 10:13:04;;;;;;;28.85;14.95;;;9.10;99.90;;;;;;5082006;28;20511;-80
2023/02/12 10:16:05;;;;;;;25.77;13.60;;;9.20;99.90;;;;;;5085768;28;20032;-77
2023/02/12 10:19:02;;;;;;;28.60;14.05;;;9.20;99.90;;;;;;5110263;28;20034;-77
2023/02/12 10:21:42;;;;;;;27.52;14.18;;;9.30;99.90;;;;;;5084562;28;20115;-77
2023/02/12 10:24:34;;;;;;;30.17;13.20;;;9.40;99.90;;;;;;5079681;28;20024;-76
2023/02/12 10:27:11;;;;;;;25.10;13.63;;;9.40;99.90;;;;;;5080380;28;20038;-80
2023/02/12 10:29:41;;;;;;;29.00;13.40;;;9.30;99.90;;;;;;5095153;28;20048;-75
2023/02/12 10:32:30;;;;;;;21.00;11.40;;;9.50;99.90;;;;;;5097898;28;20024;-78
2023/02/12 10:34:56;;;;;;;21.63;11.38;;;9.50;99.90;;;;;;5074931;28;20055;-76
2023/02/12 10:37:26;;;;;;;25.00;14.10;;;9.60;99.90;;;;;;5101079;28;20102;-77
2023/02/12 10:39:57;;;;;;;21.63;12.48;;;9.70;99.90;;;;;;5099700;28;20067;-82
2023/02/12 10:42:50;;;;;;;25.52;12.75;;;9.80;99.90;;;;;;5090889;28;20072;-78
2023/02/12 10:45:23;;;;;;;24.23;12.43;;;9.80;99.90;;;;;;5100446;28;20027;-76
2023/02/12 10:48:00;;;;;;;23.75;12.02;;;9.90;99.90;;;;;;5082401;28;20035;-75
2023/02/12 10:50:45;;;;;;;21.00;12.25;;;9.80;99.90;;;;;;5091217;28;20053;-76
2023/02/12 10:53:33;;;;;;;24.58;12.73;;;9.80;99.90;;;;;;5093418;28;20083;-75
2023/02/12 10:56:12;;;;;;;23.05;11.30;;;9.90;99.90;;;;;;5099595;28;20039;-76
2023/02/12 10:58:40;;;;;;;19.65;11.27;;;9.90;99.90;;;;;;5112132;28;20111;-77
2023/02/12 11:01:15;;;;;;;23.88;12.05;;;9.90;99.90;;;;;;5088051;28;20024;-78
2023/02/12 11:03:41;;;;;;;21.80;10.85;;;9.90;99.90;;;;;;5085768;28;20114;-77
2023/02/12 11:06:17;;;;;;;20.48;11.10;;;9.80;99.90;;;;;;5097591;28;20158;-76
2023/02/12 11:08:43;;;;;;;22.65;12.30;;;9.80;99.90;;;;;;5090928;28;20070;-77
2023/02/12 11:11:24;;;;;;;22.15;12.15;;;9.90;99.90;;;;;;5080923;28;20055;-76
2023/02/12 11:14:16;;;;;;;24.60;13.02;;;9.90;99.90;;;;;;5100394;28;20040;-78
2023/02/12 11:16:55;;;;;;;24.00;12.30;;;9.90;99.90;;;;;;5094085;28;20134;-75
2023/02/12 11:19:29;;;;;;;24.33;12.75;;;9.90;99.90;;;;;;5104017;28;20020;-75
2023/02/12 11:22:17;;;;;;;21.25;12.38;;;10.00;99.90;;;;;;5086969;28;20553;-75
2023/02/12 11:24:44;;;;;;;21.95;11.88;;;10.00;99.90;;;;;;5077647;28;20553;-74
2023/02/12 11:27:15;;;;;;;24.00;12.77;;;10.00;99.90;;;;;;5105207;28;20016;-76
2023/02/12 11:29:43;;;;;;;22.88;13.05;;;10.10;99.90;;;;;;5077511;28;20473;-75
2023/02/12 11:32:17;;;;;;;23.15;13.00;;;10.10;99.90;;;;;;5088679;28;20036;-75
2023/02/12 11:34:43;;;;;;;25.15;12.93;;;10.00;99.90;;;;;;5109298;28;20434;-76
2023/02/12 11:37:19;;;;;;;24.13;12.48;;;10.00;99.90;;;;;;5098376;28;20040;-76
2023/02/12 11:39:49;;;;;;;22.55;12.00;;;10.10;99.90;;;;;;5082551;28;20127;-76
2023/02/12 11:42:21;;;;;;;16.45;8.38;;;10.10;99.90;;;;;;5089241;28;20028;-76
2023/02/12 11:44:52;;;;;;;17.23;9.07;;;10.00;99.90;;;;;;5090683;28;20044;-76
2023/02/12 11:47:27;;;;;;;14.27;8.48;;;10.10;99.90;;;;;;5081342;28;20114;-77
2023/02/12 11:50:17;;;;;;;11.18;6.90;;;10.10;99.90;;;;;;5099284;28;20058;-76
2023/02/12 11:52:46;;;;;;;13.30;7.53;;;10.10;99.90;;;;;;5116444;28;20047;-75
2023/02/12 11:55:34;;;;;;;13.15;7.38;;;10.20;99.90;;;;;;5090676;28;20039;-75
2023/02/12 11:58:13;;;;;;;11.20;7.47;;;10.30;99.90;;;;;;5091852;28;20046;-76
2023/02/12 12:01:02;;;;;;;15.70;7.90;;;10.30;99.90;;;;;;5094998;28;20023;-74
2023/02/12 12:03:56;;;;;;;14.40;7.85;;;10.30;99.90;;;;;;5105142;28;20035;-75
2023/02/12 12:06:30;;;;;;;14.90;7.75;;;10.30;99.90;;;;;;5080633;28;20028;-75
2023/02/12 12:09:05;;;;;;;13.23;7.57;;;10.40;99.90;;;;;;5097895;28;20102;-75
2023/02/12 12:11:55;;;;;;;13.43;8.52;;;10.50;99.90;;;;;;5098573;28;20496;-74
2023/02/12 12:21:19;;;;;;;12.65;7.03;;;10.60;99.90;;;;;;5116607;28;20434;-75
2023/02/12 12:24:04;;;;;;;15.48;8.32;;;10.60;99.90;;;;;;5116363;28;20488;-75
2023/02/12 12:26:33;;;;;;;14.65;7.18;;;10.70;99.90;;;;;;5116561;28;20042;-75
2023/02/12 12:29:21;;;;;;;16.17;8.35;;;10.80;99.90;;;;;;5098267;28;20427;-75
2023/02/12 12:31:53;;;;;;;16.05;8.20;;;10.90;99.90;;;;;;5098218;28;20377;-75
2023/02/12 12:34:23;;;;;;;14.63;7.47;;;11.00;99.90;;;;;;5094718;28;20130;-77
2023/02/12 12:37:23;;;;;;;17.83;8.48;;;11.10;99.90;;;;;;5107528;28;20028;-76
2023/02/12 12:40:07;;;;;;;15.52;8.35;;;11.30;99.90;;;;;;5097390;28;20530;-74
2023/02/12 12:42:38;;;;;;;15.40;7.93;;;11.30;99.90;;;;;;5096971;28;20101;-75
2023/02/12 12:45:22;;;;;;;17.23;8.30;;;11.60;99.90;;;;;;5115531;28;20084;-75
2023/02/12 12:48:25;;;;;;;16.83;9.02;;;11.90;99.90;;;;;;5080697;28;20407;-75
2023/02/12 12:51:25;;;;;;;15.55;8.13;;;12.40;99.90;;;;;;5087588;28;20032;-75
2023/02/12 12:54:06;;;;;;;11.40;6.45;;;12.30;99.90;;;;;;5107886;28;20020;-75
2023/02/12 12:56:56;;;;;;;10.65;6.30;;;12.20;99.90;;;;;;5097009;28;20034;-74
2023/02/12 12:59:48;;;;;;;12.32;5.68;;;12.40;99.90;;;;;;5096195;28;20027;-74
2023/02/12 13:02:33;;;;;;;;;;;13.30;99.90;;;;;;5094923;28;20026;-75
2023/02/12 13:05:10;;;;;;;10.18;5.80;;;13.80;99.90;;;;;;5096819;28;19904;-75
2023/02/12 13:07:42;;;;;;;9.20;5.30;;;14.70;99.90;;;;;;5091444;28;20483;-75
2023/02/12 13:10:32;;;;;;;10.65;5.88;;;15.30;99.90;;;;;;5096946;28;20028;-79
2023/02/12 13:13:08;;;;;;;9.35;5.05;;;15.30;99.60;;;;;;5097011;28;20024;-74
2023/02/12 13:15:42;;;;;;;8.23;4.85;;;15.80;99.90;;;;;;5115012;28;20115;-75